sensor_id;sensor_type;location;lat;lon;timestamp;pressure;altitude;pressure_sealevel;temperature;humidity
41062;BME280;26812;42.662;23.352;2023-05-16T00:01:48;94611.81;;;15.02;77.60
41062;BME280;26812;42.662;23.352;2023-05-16T00:04:14;94617.41;;;14.93;78.36
41062;BME280;26812;42.662;23.352;2023-05-16T00:06:40;94597.38;;;14.82;78.40
41062;BME280;26812;42.662;23.352;2023-05-16T00:09:05;94610.91;;;15.13;77.98
41062;BME280;26812;42.662;23.352;2023-05-16T00:11:31;94613.09;;;15.23;77.39
41062;BME280;26812;42.662;23.352;2023-05-16T00:13:56;94596.53;;;15.29;76.70
41062;BME280;26812;42.662;23.352;2023-05-16T00:16:23;94610.69;;;15.38;76.46
41062;BME280;26812;42.662;23.352;2023-05-16T00:18:50;94614.91;;;15.35;76.77
41062;BME280;26812;42.662;23.352;2023-05-16T00:21:17;94602.66;;;15.26;77.45
41062;BME280;26812;42.662;23.352;2023-05-16T00:23:49;94609.06;;;15.17;77.08
41062;BME280;26812;42.662;23.352;2023-05-16T00:26:15;94613.44;;;15.22;77.61
41062;BME280;26812;42.662;23.352;2023-05-16T00:28:40;94606.44;;;15.21;77.58
41062;BME280;26812;42.662;23.352;2023-05-16T00:31:06;94615.50;;;15.29;77.62
41062;BME280;26812;42.662;23.352;2023-05-16T00:33:32;94611.22;;;15.28;77.34
41062;BME280;26812;42.662;23.352;2023-05-16T00:35:57;94603.13;;;15.12;77.77
41062;BME280;26812;42.662;23.352;2023-05-16T00:38:24;94599.19;;;14.94;78.82
41062;BME280;26812;42.662;23.352;2023-05-16T00:40:50;94602.91;;;15.01;79.01
41062;BME280;26812;42.662;23.352;2023-05-16T00:43:15;94570.19;;;14.78;78.84
41062;BME280;26812;42.662;23.352;2023-05-16T00:45:40;94594.75;;;15.01;79.30
41062;BME280;26812;42.662;23.352;2023-05-16T00:48:13;94580.50;;;14.88;79.05
41062;BME280;26812;42.662;23.352;2023-05-16T00:50:39;94583.13;;;14.85;79.19
41062;BME280;26812;42.662;23.352;2023-05-16T00:53:05;94577.53;;;14.78;80.13
41062;BME280;26812;42.662;23.352;2023-05-16T00:55:31;94570.94;;;15.10;78.14
41062;BME280;26812;42.662;23.352;2023-05-16T00:57:57;94575.25;;;14.80;79.97
41062;BME280;26812;42.662;23.352;2023-05-16T01:00:23;94556.97;;;14.77;80.02
41062;BME280;26812;42.662;23.352;2023-05-16T01:02:50;94551.19;;;14.78;79.44
41062;BME280;26812;42.662;23.352;2023-05-16T01:05:18;94559.16;;;14.55;80.93
41062;BME280;26812;42.662;23.352;2023-05-16T01:07:43;94556.03;;;14.53;81.21
41062;BME280;26812;42.662;23.352;2023-05-16T01:10:09;94554.63;;;14.59;80.94
41062;BME280;26812;42.662;23.352;2023-05-16T01:15:07;94570.69;;;14.84;80.03
41062;BME280;26812;42.662;23.352;2023-05-16T01:23:03;94547.31;;;14.95;78.59
41062;BME280;26812;42.662;23.352;2023-05-16T01:25:39;94559.19;;;14.71;79.81
41062;BME280;26812;42.662;23.352;2023-05-16T01:28:12;94548.06;;;14.60;80.33
41062;BME280;26812;42.662;23.352;2023-05-16T01:30:39;94554.84;;;14.86;79.97
41062;BME280;26812;42.662;23.352;2023-05-16T01:33:05;94542.44;;;14.69;80.07
41062;BME280;26812;42.662;23.352;2023-05-16T01:35:31;94541.34;;;14.70;80.39
41062;BME280;26812;42.662;23.352;2023-05-16T01:38:04;94553.13;;;14.78;79.89
41062;BME280;26812;42.662;23.352;2023-05-16T01:43:17;94529.66;;;14.85;79.13
41062;BME280;26812;42.662;23.352;2023-05-16T01:45:50;94503.53;;;14.62;79.69
41062;BME280;26812;42.662;23.352;2023-05-16T01:48:22;94530.50;;;15.05;78.51
41062;BME280;26812;42.662;23.352;2023-05-16T01:50:54;94527.84;;;14.74;78.45
41062;BME280;26812;42.662;23.352;2023-05-16T01:53:28;94512.38;;;14.58;79.56
41062;BME280;26812;42.662;23.352;2023-05-16T01:55:59;94530.28;;;14.63;79.78
41062;BME280;26812;42.662;23.352;2023-05-16T01:58:28;94514.31;;;14.74;79.29
41062;BME280;26812;42.662;23.352;2023-05-16T02:01:00;94524.59;;;14.68;78.80
41062;BME280;26812;42.662;23.352;2023-05-16T02:03:27;94517.88;;;14.78;78.42
41062;BME280;26812;42.662;23.352;2023-05-16T02:05:52;94524.72;;;14.72;78.64
41062;BME280;26812;42.662;23.352;2023-05-16T02:08:18;94519.94;;;15.00;77.41
41062;BME280;26812;42.662;23.352;2023-05-16T02:10:43;94491.56;;;14.63;77.93
41062;BME280;26812;42.662;23.352;2023-05-16T02:13:09;94505.56;;;15.00;77.40
41062;BME280;26812;42.662;23.352;2023-05-16T02:15:34;94515.81;;;15.06;76.92
41062;BME280;26812;42.662;23.352;2023-05-16T02:17:59;94483.28;;;14.90;76.80
41062;BME280;26812;42.662;23.352;2023-05-16T02:20:25;94491.59;;;15.17;75.91
41062;BME280;26812;42.662;23.352;2023-05-16T02:22:50;94496.09;;;15.09;75.66
41062;BME280;26812;42.662;23.352;2023-05-16T02:25:16;94503.75;;;15.23;76.46
41062;BME280;26812;42.662;23.352;2023-05-16T02:27:42;94511.03;;;15.19;76.28
41062;BME280;26812;42.662;23.352;2023-05-16T02:30:09;94513.38;;;15.01;76.49
41062;BME280;26812;42.662;23.352;2023-05-16T02:32:36;94492.75;;;14.81;77.00
41062;BME280;26812;42.662;23.352;2023-05-16T02:35:01;94504.41;;;14.81;77.22
41062;BME280;26812;42.662;23.352;2023-05-16T02:37:27;94497.97;;;14.54;77.94
41062;BME280;26812;42.662;23.352;2023-05-16T02:39:52;94501.66;;;14.46;78.85
41062;BME280;26812;42.662;23.352;2023-05-16T02:42:18;94522.44;;;14.58;78.61
41062;BME280;26812;42.662;23.352;2023-05-16T02:44:43;94521.28;;;14.59;78.74
41062;BME280;26812;42.662;23.352;2023-05-16T02:47:09;94494.44;;;14.38;78.74
41062;BME280;26812;42.662;23.352;2023-05-16T02:49:34;94505.53;;;14.65;78.62
41062;BME280;26812;42.662;23.352;2023-05-16T02:52:00;94489.72;;;14.67;77.70
41062;BME280;26812;42.662;23.352;2023-05-16T02:54:25;94517.25;;;14.84;77.65
41062;BME280;26812;42.662;23.352;2023-05-16T02:56:50;94515.91;;;14.94;76.74
41062;BME280;26812;42.662;23.352;2023-05-16T02:59:16;94482.34;;;14.67;77.22
41062;BME280;26812;42.662;23.352;2023-05-16T03:01:41;94488.50;;;14.99;76.11
41062;BME280;26812;42.662;23.352;2023-05-16T03:04:07;94465.66;;;14.81;76.74
41062;BME280;26812;42.662;23.352;2023-05-16T03:06:32;94477.44;;;14.88;76.43
41062;BME280;26812;42.662;23.352;2023-05-16T03:08:58;94477.13;;;14.74;76.94
41062;BME280;26812;42.662;23.352;2023-05-16T03:11:23;94492.38;;;15.17;76.13
41062;BME280;26812;42.662;23.352;2023-05-16T03:13:50;94502.47;;;15.17;75.38
41062;BME280;26812;42.662;23.352;2023-05-16T03:16:15;94493.41;;;14.94;76.16
41062;BME280;26812;42.662;23.352;2023-05-16T03:18:41;94494.56;;;14.93;76.23
41062;BME280;26812;42.662;23.352;2023-05-16T03:21:07;94496.84;;;14.90;76.61
41062;BME280;26812;42.662;23.352;2023-05-16T03:23:33;94471.41;;;14.79;76.65
41062;BME280;26812;42.662;23.352;2023-05-16T03:25:58;94484.84;;;14.91;76.54
41062;BME280;26812;42.662;23.352;2023-05-16T03:28:23;94498.09;;;15.12;75.93
41062;BME280;26812;42.662;23.352;2023-05-16T03:30:49;94493.09;;;15.14;76.02
41062;BME280;26812;42.662;23.352;2023-05-16T03:33:14;94484.69;;;15.00;75.80
41062;BME280;26812;42.662;23.352;2023-05-16T03:35:41;94489.81;;;15.05;75.71
41062;BME280;26812;42.662;23.352;2023-05-16T03:38:07;94491.06;;;14.92;76.44
41062;BME280;26812;42.662;23.352;2023-05-16T03:40:34;94481.78;;;14.93;76.14
41062;BME280;26812;42.662;23.352;2023-05-16T03:43:00;94459.16;;;14.85;76.65
41062;BME280;26812;42.662;23.352;2023-05-16T03:45:25;94489.59;;;15.14;74.96
41062;BME280;26812;42.662;23.352;2023-05-16T03:47:50;94473.34;;;14.79;76.54
41062;BME280;26812;42.662;23.352;2023-05-16T03:50:16;94488.41;;;14.96;76.28
41062;BME280;26812;42.662;23.352;2023-05-16T03:52:42;94501.38;;;15.02;76.20
41062;BME280;26812;42.662;23.352;2023-05-16T03:55:08;94492.81;;;15.00;76.38
41062;BME280;26812;42.662;23.352;2023-05-16T03:57:36;94456.56;;;14.73;76.97
41062;BME280;26812;42.662;23.352;2023-05-16T04:00:02;94492.41;;;14.82;76.98
41062;BME280;26812;42.662;23.352;2023-05-16T04:02:31;94496.41;;;14.88;77.49
41062;BME280;26812;42.662;23.352;2023-05-16T04:04:57;94494.22;;;14.94;77.78
41062;BME280;26812;42.662;23.352;2023-05-16T04:07:22;94481.16;;;15.00;76.30
41062;BME280;26812;42.662;23.352;2023-05-16T04:09:47;94495.94;;;15.02;76.74
41062;BME280;26812;42.662;23.352;2023-05-16T04:12:13;94494.59;;;15.12;76.01
41062;BME280;26812;42.662;23.352;2023-05-16T04:14:38;94514.22;;;15.05;76.55
41062;BME280;26812;42.662;23.352;2023-05-16T04:17:04;94489.91;;;14.93;76.74
41062;BME280;26812;42.662;23.352;2023-05-16T04:19:29;94515.72;;;15.03;76.60
41062;BME280;26812;42.662;23.352;2023-05-16T04:21:55;94515.66;;;15.18;76.07
41062;BME280;26812;42.662;23.352;2023-05-16T04:24:20;94504.78;;;14.99;75.71
41062;BME280;26812;42.662;23.352;2023-05-16T04:26:50;94510.81;;;15.08;76.39
41062;BME280;26812;42.662;23.352;2023-05-16T04:29:16;94497.78;;;14.98;76.53
41062;BME280;26812;42.662;23.352;2023-05-16T04:31:41;94489.09;;;15.08;76.24
41062;BME280;26812;42.662;23.352;2023-05-16T04:34:06;94481.06;;;14.96;76.61
41062;BME280;26812;42.662;23.352;2023-05-16T04:36:32;94485.88;;;15.03;76.27
41062;BME280;26812;42.662;23.352;2023-05-16T04:38:59;94494.38;;;15.01;76.39
41062;BME280;26812;42.662;23.352;2023-05-16T04:41:25;94486.56;;;15.00;76.59
41062;BME280;26812;42.662;23.352;2023-05-16T04:43:50;94484.81;;;15.07;75.61
41062;BME280;26812;42.662;23.352;2023-05-16T04:46:16;94479.75;;;15.06;75.08
41062;BME280;26812;42.662;23.352;2023-05-16T04:48:41;94488.88;;;15.17;74.58
41062;BME280;26812;42.662;23.352;2023-05-16T04:51:06;94503.31;;;15.21;74.74
41062;BME280;26812;42.662;23.352;2023-05-16T04:53:32;94496.75;;;15.22;74.73
41062;BME280;26812;42.662;23.352;2023-05-16T04:55:58;94489.59;;;15.14;75.50
41062;BME280;26812;42.662;23.352;2023-05-16T04:58:24;94497.03;;;15.17;75.29
41062;BME280;26812;42.662;23.352;2023-05-16T05:00:53;94499.22;;;15.66;74.12
41062;BME280;26812;42.662;23.352;2023-05-16T05:03:20;94494.06;;;15.41;74.01
41062;BME280;26812;42.662;23.352;2023-05-16T05:05:45;94497.13;;;15.40;74.13
41062;BME280;26812;42.662;23.352;2023-05-16T05:08:12;94480.25;;;15.11;74.96
41062;BME280;26812;42.662;23.352;2023-05-16T05:10:37;94451.75;;;15.02;75.05
41062;BME280;26812;42.662;23.352;2023-05-16T05:13:03;94486.69;;;15.22;74.64
41062;BME280;26812;42.662;23.352;2023-05-16T05:15:29;94504.94;;;15.61;73.36
41062;BME280;26812;42.662;23.352;2023-05-16T05:17:54;94469.69;;;15.45;72.54
41062;BME280;26812;42.662;23.352;2023-05-16T05:20:19;94480.56;;;15.45;73.00
41062;BME280;26812;42.662;23.352;2023-05-16T05:22:45;94495.22;;;15.60;72.76
41062;BME280;26812;42.662;23.352;2023-05-16T05:25:11;94501.53;;;15.87;71.78
41062;BME280;26812;42.662;23.352;2023-05-16T05:27:36;94506.78;;;15.95;71.58
41062;BME280;26812;42.662;23.352;2023-05-16T05:30:02;94486.41;;;15.47;72.67
41062;BME280;26812;42.662;23.352;2023-05-16T05:32:28;94475.06;;;15.41;72.94
41062;BME280;26812;42.662;23.352;2023-05-16T05:34:53;94455.13;;;15.34;72.99
41062;BME280;26812;42.662;23.352;2023-05-16T05:37:19;94478.78;;;15.33;74.02
41062;BME280;26812;42.662;23.352;2023-05-16T05:39:44;94478.25;;;15.28;74.24
41062;BME280;26812;42.662;23.352;2023-05-16T05:42:10;94456.47;;;15.05;74.85
41062;BME280;26812;42.662;23.352;2023-05-16T05:44:36;94470.53;;;15.30;74.66
41062;BME280;26812;42.662;23.352;2023-05-16T05:47:02;94474.28;;;15.41;74.10
41062;BME280;26812;42.662;23.352;2023-05-16T05:49:28;94458.47;;;15.46;74.09
41062;BME280;26812;42.662;23.352;2023-05-16T05:51:53;94455.16;;;15.57;73.34
41062;BME280;26812;42.662;23.352;2023-05-16T05:54:19;94462.88;;;15.54;73.85
41062;BME280;26812;42.662;23.352;2023-05-16T05:56:45;94468.41;;;15.39;74.56
41062;BME280;26812;42.662;23.352;2023-05-16T05:59:10;94478.19;;;15.43;75.30
41062;BME280;26812;42.662;23.352;2023-05-16T06:01:36;94468.00;;;15.37;75.16
41062;BME280;26812;42.662;23.352;2023-05-16T06:04:02;94466.56;;;15.43;74.71
41062;BME280;26812;42.662;23.352;2023-05-16T06:06:27;94464.97;;;15.42;74.87
41062;BME280;26812;42.662;23.352;2023-05-16T06:08:53;94464.41;;;15.52;75.08
41062;BME280;26812;42.662;23.352;2023-05-16T06:11:19;94444.78;;;15.39;74.55
41062;BME280;26812;42.662;23.352;2023-05-16T06:13:45;94466.84;;;15.38;74.64
41062;BME280;26812;42.662;23.352;2023-05-16T06:16:14;94487.19;;;15.47;75.33
41062;BME280;26812;42.662;23.352;2023-05-16T06:18:39;94460.31;;;15.23;75.64
41062;BME280;26812;42.662;23.352;2023-05-16T06:21:08;94453.06;;;15.66;74.06
41062;BME280;26812;42.662;23.352;2023-05-16T06:23:36;94479.06;;;15.47;73.84
41062;BME280;26812;42.662;23.352;2023-05-16T06:26:02;94468.28;;;15.70;74.09
41062;BME280;26812;42.662;23.352;2023-05-16T06:28:28;94484.06;;;16.07;72.43
41062;BME280;26812;42.662;23.352;2023-05-16T06:30:54;94483.16;;;16.45;70.28
41062;BME280;26812;42.662;23.352;2023-05-16T06:33:19;94458.09;;;16.32;70.05
41062;BME280;26812;42.662;23.352;2023-05-16T06:35:45;94480.38;;;16.19;71.41
41062;BME280;26812;42.662;23.352;2023-05-16T06:38:13;94477.03;;;16.52;69.58
41062;BME280;26812;42.662;23.352;2023-05-16T06:40:38;94458.09;;;16.09;70.46
41062;BME280;26812;42.662;23.352;2023-05-16T06:43:04;94471.56;;;16.02;71.00
41062;BME280;26812;42.662;23.352;2023-05-16T06:45:29;94471.44;;;15.95;71.29
41062;BME280;26812;42.662;23.352;2023-05-16T06:47:55;94474.53;;;15.94;71.36
41062;BME280;26812;42.662;23.352;2023-05-16T06:50:21;94456.97;;;16.33;70.05
41062;BME280;26812;42.662;23.352;2023-05-16T06:52:47;94454.19;;;16.30;69.33
41062;BME280;26812;42.662;23.352;2023-05-16T06:55:12;94458.16;;;16.36;69.75
41062;BME280;26812;42.662;23.352;2023-05-16T06:57:38;94451.09;;;16.31;70.30
41062;BME280;26812;42.662;23.352;2023-05-16T07:00:03;94437.41;;;16.24;69.84
41062;BME280;26812;42.662;23.352;2023-05-16T07:02:36;94457.06;;;16.40;69.76
41062;BME280;26812;42.662;23.352;2023-05-16T07:05:01;94449.31;;;16.42;69.39
41062;BME280;26812;42.662;23.352;2023-05-16T07:07:27;94447.63;;;16.57;68.28
41062;BME280;26812;42.662;23.352;2023-05-16T07:09:53;94436.00;;;16.11;69.30
41062;BME280;26812;42.662;23.352;2023-05-16T07:12:18;94422.34;;;15.84;70.51
41062;BME280;26812;42.662;23.352;2023-05-16T07:14:45;94450.44;;;16.15;70.12
41062;BME280;26812;42.662;23.352;2023-05-16T07:17:10;94423.94;;;16.08;70.12
41062;BME280;26812;42.662;23.352;2023-05-16T07:19:36;94401.81;;;16.33;69.44
41062;BME280;26812;42.662;23.352;2023-05-16T07:22:01;94418.47;;;16.31;69.11
41062;BME280;26812;42.662;23.352;2023-05-16T07:24:27;94414.88;;;16.50;68.96
41062;BME280;26812;42.662;23.352;2023-05-16T07:26:52;94425.88;;;16.57;69.24
41062;BME280;26812;42.662;23.352;2023-05-16T07:29:17;94412.28;;;16.84;67.84
41062;BME280;26812;42.662;23.352;2023-05-16T07:31:43;94421.53;;;16.79;67.51
41062;BME280;26812;42.662;23.352;2023-05-16T07:34:09;94401.56;;;16.19;69.96
41062;BME280;26812;42.662;23.352;2023-05-16T07:36:35;94411.28;;;16.20;69.89
41062;BME280;26812;42.662;23.352;2023-05-16T07:39:00;94411.94;;;16.36;69.79
41062;BME280;26812;42.662;23.352;2023-05-16T07:41:26;94425.16;;;16.37;68.86
41062;BME280;26812;42.662;23.352;2023-05-16T07:43:51;94423.31;;;16.19;69.47
41062;BME280;26812;42.662;23.352;2023-05-16T07:46:17;94412.69;;;16.59;67.81
41062;BME280;26812;42.662;23.352;2023-05-16T07:48:42;94446.47;;;16.58;68.68
41062;BME280;26812;42.662;23.352;2023-05-16T07:51:07;94432.94;;;16.62;68.16
41062;BME280;26812;42.662;23.352;2023-05-16T07:53:33;94425.75;;;16.50;68.45
41062;BME280;26812;42.662;23.352;2023-05-16T07:55:58;94409.53;;;16.31;68.19
41062;BME280;26812;42.662;23.352;2023-05-16T07:58:24;94420.44;;;16.08;69.41
41062;BME280;26812;42.662;23.352;2023-05-16T08:00:49;94434.91;;;16.38;69.21
41062;BME280;26812;42.662;23.352;2023-05-16T08:03:15;94427.53;;;16.65;67.43
41062;BME280;26812;42.662;23.352;2023-05-16T08:05:40;94430.84;;;16.78;67.26
41062;BME280;26812;42.662;23.352;2023-05-16T08:08:06;94405.56;;;16.77;67.13
41062;BME280;26812;42.662;23.352;2023-05-16T08:10:32;94402.06;;;16.77;67.27
41062;BME280;26812;42.662;23.352;2023-05-16T08:12:57;94410.94;;;17.00;66.70
41062;BME280;26812;42.662;23.352;2023-05-16T08:15:26;94412.72;;;17.49;64.98
41062;BME280;26812;42.662;23.352;2023-05-16T08:17:56;94373.34;;;17.10;66.11
41062;BME280;26812;42.662;23.352;2023-05-16T08:20:29;94390.16;;;17.52;64.83
41062;BME280;26812;42.662;23.352;2023-05-16T08:22:55;94401.94;;;17.26;65.01
41062;BME280;26812;42.662;23.352;2023-05-16T08:25:20;94374.44;;;17.05;65.50
41062;BME280;26812;42.662;23.352;2023-05-16T08:27:52;94383.63;;;17.23;65.44
41062;BME280;26812;42.662;23.352;2023-05-16T08:30:26;94370.72;;;17.17;65.25
41062;BME280;26812;42.662;23.352;2023-05-16T08:32:52;94418.50;;;17.81;64.36
41062;BME280;26812;42.662;23.352;2023-05-16T08:35:17;94395.59;;;17.86;63.88
41062;BME280;26812;42.662;23.352;2023-05-16T08:37:43;94386.50;;;18.15;62.81
41062;BME280;26812;42.662;23.352;2023-05-16T08:40:09;94409.34;;;17.63;64.64
41062;BME280;26812;42.662;23.352;2023-05-16T08:42:35;94402.88;;;18.19;62.87
41062;BME280;26812;42.662;23.352;2023-05-16T08:45:02;94403.41;;;17.91;63.44
41062;BME280;26812;42.662;23.352;2023-05-16T08:47:30;94393.19;;;17.77;63.09
41062;BME280;26812;42.662;23.352;2023-05-16T08:49:57;94373.91;;;17.59;63.84
41062;BME280;26812;42.662;23.352;2023-05-16T08:52:26;94400.03;;;18.05;62.98
41062;BME280;26812;42.662;23.352;2023-05-16T08:54:56;94382.28;;;18.25;61.53
41062;BME280;26812;42.662;23.352;2023-05-16T08:57:24;94375.22;;;18.17;62.20
41062;BME280;26812;42.662;23.352;2023-05-16T08:59:51;94389.59;;;18.10;63.10
41062;BME280;26812;42.662;23.352;2023-05-16T09:02:19;94384.69;;;18.34;61.65
41062;BME280;26812;42.662;23.352;2023-05-16T09:04:47;94394.53;;;18.45;61.66
41062;BME280;26812;42.662;23.352;2023-05-16T09:07:13;94388.66;;;18.40;61.53
41062;BME280;26812;42.662;23.352;2023-05-16T09:09:38;94387.69;;;18.18;62.44
41062;BME280;26812;42.662;23.352;2023-05-16T09:12:06;94390.91;;;18.34;62.08
41062;BME280;26812;42.662;23.352;2023-05-16T09:14:32;94387.88;;;18.43;61.77
41062;BME280;26812;42.662;23.352;2023-05-16T09:17:05;94380.56;;;18.54;60.80
41062;BME280;26812;42.662;23.352;2023-05-16T09:19:42;94395.97;;;18.83;59.90
41062;BME280;26812;42.662;23.352;2023-05-16T09:22:10;94397.63;;;18.44;60.87
41062;BME280;26812;42.662;23.352;2023-05-16T09:24:40;94394.53;;;18.45;61.08
41062;BME280;26812;42.662;23.352;2023-05-16T09:27:08;94390.44;;;18.69;59.59
41062;BME280;26812;42.662;23.352;2023-05-16T09:29:33;94394.41;;;18.82;59.60
41062;BME280;26812;42.662;23.352;2023-05-16T09:32:15;94392.06;;;18.84;59.23
41062;BME280;26812;42.662;23.352;2023-05-16T09:34:46;94382.72;;;18.89;59.55
41062;BME280;26812;42.662;23.352;2023-05-16T09:37:16;94397.38;;;18.63;59.72
41062;BME280;26812;42.662;23.352;2023-05-16T09:39:49;94377.81;;;18.54;60.63
41062;BME280;26812;42.662;23.352;2023-05-16T09:42:17;94379.59;;;18.87;59.62
41062;BME280;26812;42.662;23.352;2023-05-16T09:44:51;94377.69;;;18.95;59.25
41062;BME280;26812;42.662;23.352;2023-05-16T09:47:18;94397.28;;;19.11;58.54
41062;BME280;26812;42.662;23.352;2023-05-16T09:49:45;94375.69;;;18.84;59.46
41062;BME280;26812;42.662;23.352;2023-05-16T09:52:11;94384.09;;;18.61;60.20
41062;BME280;26812;42.662;23.352;2023-05-16T09:54:37;94372.41;;;18.61;60.61
41062;BME280;26812;42.662;23.352;2023-05-16T09:57:03;94385.44;;;18.85;60.05
41062;BME280;26812;42.662;23.352;2023-05-16T09:59:28;94351.75;;;18.60;59.87
41062;BME280;26812;42.662;23.352;2023-05-16T10:01:56;94371.78;;;18.82;60.53
41062;BME280;26812;42.662;23.352;2023-05-16T10:04:23;94371.41;;;18.83;60.28
41062;BME280;26812;42.662;23.352;2023-05-16T10:06:50;94380.13;;;19.10;60.34
41062;BME280;26812;42.662;23.352;2023-05-16T10:09:17;94384.03;;;19.13;59.94
41062;BME280;26812;42.662;23.352;2023-05-16T10:11:44;94360.00;;;19.54;58.12
41062;BME280;26812;42.662;23.352;2023-05-16T10:14:10;94384.28;;;20.05;57.33
41062;BME280;26812;42.662;23.352;2023-05-16T10:16:37;94385.06;;;20.16;56.51
41062;BME280;26812;42.662;23.352;2023-05-16T10:19:07;94377.19;;;19.62;57.52
41062;BME280;26812;42.662;23.352;2023-05-16T10:21:33;94354.78;;;19.13;58.31
41062;BME280;26812;42.662;23.352;2023-05-16T10:24:02;94382.94;;;19.35;58.61
41062;BME280;26812;42.662;23.352;2023-05-16T10:26:31;94395.84;;;19.42;58.82
41062;BME280;26812;42.662;23.352;2023-05-16T10:28:57;94375.94;;;19.38;58.42
41062;BME280;26812;42.662;23.352;2023-05-16T10:31:22;94379.84;;;19.40;58.82
41062;BME280;26812;42.662;23.352;2023-05-16T10:33:49;94360.81;;;19.62;58.91
41062;BME280;26812;42.662;23.352;2023-05-16T10:36:15;94358.88;;;19.76;58.02
41062;BME280;26812;42.662;23.352;2023-05-16T10:38:41;94374.50;;;19.76;58.03
41062;BME280;26812;42.662;23.352;2023-05-16T10:41:08;94367.75;;;19.48;59.41
41062;BME280;26812;42.662;23.352;2023-05-16T10:43:34;94349.88;;;19.69;58.75
41062;BME280;26812;42.662;23.352;2023-05-16T10:46:07;94348.31;;;19.82;57.93
41062;BME280;26812;42.662;23.352;2023-05-16T10:48:40;94327.66;;;19.95;56.96
41062;BME280;26812;42.662;23.352;2023-05-16T10:53:53;94331.16;;;19.99;56.97
41062;BME280;26812;42.662;23.352;2023-05-16T10:56:25;94329.97;;;20.18;56.29
41062;BME280;26812;42.662;23.352;2023-05-16T10:58:53;94342.88;;;19.82;56.65
41062;BME280;26812;42.662;23.352;2023-05-16T11:01:33;94340.16;;;20.21;56.70
41062;BME280;26812;42.662;23.352;2023-05-16T11:04:04;94331.94;;;20.10;56.80
41062;BME280;26812;42.662;23.352;2023-05-16T11:06:31;94345.59;;;19.82;57.73
41062;BME280;26812;42.662;23.352;2023-05-16T11:11:47;94342.09;;;19.89;58.12
41062;BME280;26812;42.662;23.352;2023-05-16T11:24:34;94336.63;;;20.35;56.33
41062;BME280;26812;42.662;23.352;2023-05-16T11:27:01;94327.63;;;20.49;56.18
41062;BME280;26812;42.662;23.352;2023-05-16T11:29:31;94347.19;;;20.26;56.43
41062;BME280;26812;42.662;23.352;2023-05-16T11:32:02;94338.19;;;20.36;54.97
41062;BME280;26812;42.662;23.352;2023-05-16T11:34:35;94333.88;;;19.81;56.25
41062;BME280;26812;42.662;23.352;2023-05-16T11:37:02;94354.19;;;19.84;56.85
41062;BME280;26812;42.662;23.352;2023-05-16T11:39:30;94346.00;;;19.91;56.78
41062;BME280;26812;42.662;23.352;2023-05-16T11:41:56;94328.81;;;20.23;55.45
41062;BME280;26812;42.662;23.352;2023-05-16T11:44:21;94364.69;;;20.92;54.07
41062;BME280;26812;42.662;23.352;2023-05-16T11:46:46;94324.09;;;20.62;54.08
41062;BME280;26812;42.662;23.352;2023-05-16T11:49:12;94325.63;;;20.70;55.00
41062;BME280;26812;42.662;23.352;2023-05-16T11:51:41;94347.16;;;20.51;54.21
41062;BME280;26812;42.662;23.352;2023-05-16T11:54:10;94340.53;;;20.55;54.47
41062;BME280;26812;42.662;23.352;2023-05-16T11:56:38;94347.16;;;20.68;54.94
41062;BME280;26812;42.662;23.352;2023-05-16T11:59:14;94332.63;;;20.78;54.62
41062;BME280;26812;42.662;23.352;2023-05-16T12:02:02;94345.53;;;20.78;54.40
41062;BME280;26812;42.662;23.352;2023-05-16T12:04:29;94326.00;;;20.87;54.10
41062;BME280;26812;42.662;23.352;2023-05-16T12:06:59;94315.53;;;20.53;54.59
41062;BME280;26812;42.662;23.352;2023-05-16T12:09:25;94297.81;;;20.90;54.07
41062;BME280;26812;42.662;23.352;2023-05-16T12:11:57;94279.34;;;21.08;53.01
41062;BME280;26812;42.662;23.352;2023-05-16T12:14:23;94313.75;;;21.09;53.70
41062;BME280;26812;42.662;23.352;2023-05-16T12:16:50;94288.59;;;21.39;53.00
41062;BME280;26812;42.662;23.352;2023-05-16T12:19:16;94316.56;;;21.75;51.88
41062;BME280;26812;42.662;23.352;2023-05-16T12:21:42;94306.38;;;21.72;52.55
41062;BME280;26812;42.662;23.352;2023-05-16T12:24:09;94288.38;;;21.71;51.61
41062;BME280;26812;42.662;23.352;2023-05-16T12:26:38;94259.31;;;21.29;52.26
41062;BME280;26812;42.662;23.352;2023-05-16T12:29:04;94264.28;;;21.96;51.46
41062;BME280;26812;42.662;23.352;2023-05-16T12:31:31;94287.06;;;22.42;50.95
41062;BME280;26812;42.662;23.352;2023-05-16T12:34:00;94287.47;;;22.40;50.24
41062;BME280;26812;42.662;23.352;2023-05-16T12:36:25;94266.38;;;21.82;50.37
41062;BME280;26812;42.662;23.352;2023-05-16T12:38:54;94300.91;;;21.72;51.20
41062;BME280;26812;42.662;23.352;2023-05-16T12:41:21;94291.06;;;21.82;51.42
41062;BME280;26812;42.662;23.352;2023-05-16T12:43:47;94299.22;;;21.89;51.92
41062;BME280;26812;42.662;23.352;2023-05-16T12:46:13;94294.03;;;22.01;51.71
41062;BME280;26812;42.662;23.352;2023-05-16T12:48:39;94267.47;;;21.91;51.37
41062;BME280;26812;42.662;23.352;2023-05-16T12:51:14;94282.72;;;21.96;52.51
41062;BME280;26812;42.662;23.352;2023-05-16T12:53:45;94308.16;;;22.00;53.79
41062;BME280;26812;42.662;23.352;2023-05-16T12:56:17;94314.00;;;21.50;55.31
41062;BME280;26812;42.662;23.352;2023-05-16T12:58:42;94312.06;;;21.40;55.66
41062;BME280;26812;42.662;23.352;2023-05-16T13:01:08;94312.06;;;21.40;55.28
41062;BME280;26812;42.662;23.352;2023-05-16T13:03:34;94307.47;;;21.19;53.89
41062;BME280;26812;42.662;23.352;2023-05-16T13:06:00;94314.19;;;21.04;55.35
41062;BME280;26812;42.662;23.352;2023-05-16T13:08:26;94325.59;;;20.85;55.95
41062;BME280;26812;42.662;23.352;2023-05-16T13:10:52;94306.53;;;20.49;56.69
41062;BME280;26812;42.662;23.352;2023-05-16T13:13:18;94306.50;;;20.63;56.21
41062;BME280;26812;42.662;23.352;2023-05-16T13:15:44;94320.94;;;20.74;56.07